sensor_id;sensor_type;location;lat;lon;timestamp;P1;durP1;ratioP1;P2;durP2;ratioP2
42194;SDS011;27863;49.440;11.102;2023-02-01T00:00:51;4.43;;;3.90;;
42194;SDS011;27863;49.440;11.102;2023-02-01T00:03:52;3.83;;;3.53;;
42194;SDS011;27863;49.440;11.102;2023-02-01T00:06:52;4.10;;;3.80;;
42194;SDS011;27863;49.440;11.102;2023-02-01T00:09:53;4.83;;;4.43;;
42194;SDS011;27863;49.440;11.102;2023-02-01T00:12:55;4.83;;;4.37;;
42194;SDS011;27863;49.440;11.102;2023-02-01T00:16:01;4.20;;;3.80;;
42194;SDS011;27863;49.440;11.102;2023-02-01T00:19:23;4.73;;;4.33;;
42194;SDS011;27863;49.440;11.102;2023-02-01T00:22:23;4.67;;;4.27;;
42194;SDS011;27863;49.440;11.102;2023-02-01T00:25:25;4.73;;;4.33;;
42194;SDS011;27863;49.440;11.102;2023-02-01T00:28:26;4.13;;;3.73;;
42194;SDS011;27863;49.440;11.102;2023-02-01T00:31:26;5.83;;;4.67;;
42194;SDS011;27863;49.440;11.102;2023-02-01T00:34:27;4.10;;;3.77;;
42194;SDS011;27863;49.440;11.102;2023-02-01T00:37:27;3.60;;;3.30;;
42194;SDS011;27863;49.440;11.102;2023-02-01T00:40:28;4.33;;;4.03;;
42194;SDS011;27863;49.440;11.102;2023-02-01T00:43:30;5.17;;;3.93;;
42194;SDS011;27863;49.440;11.102;2023-02-01T00:46:31;4.70;;;4.30;;
42194;SDS011;27863;49.440;11.102;2023-02-01T00:49:32;3.90;;;3.60;;
42194;SDS011;27863;49.440;11.102;2023-02-01T00:52:32;5.83;;;4.37;;
42194;SDS011;27863;49.440;11.102;2023-02-01T00:55:33;7.03;;;3.40;;
42194;SDS011;27863;49.440;11.102;2023-02-01T00:58:34;4.53;;;4.10;;
42194;SDS011;27863;49.440;11.102;2023-02-01T01:01:34;4.23;;;3.40;;
42194;SDS011;27863;49.440;11.102;2023-02-01T01:04:35;3.57;;;3.27;;
42194;SDS011;27863;49.440;11.102;2023-02-01T01:07:35;5.23;;;4.73;;
42194;SDS011;27863;49.440;11.102;2023-02-01T01:10:38;4.57;;;4.17;;
42194;SDS011;27863;49.440;11.102;2023-02-01T01:13:39;7.47;;;3.73;;
42194;SDS011;27863;49.440;11.102;2023-02-01T01:16:40;3.90;;;3.60;;
42194;SDS011;27863;49.440;11.102;2023-02-01T01:19:41;3.70;;;3.40;;
42194;SDS011;27863;49.440;11.102;2023-02-01T01:22:41;4.10;;;3.80;;
42194;SDS011;27863;49.440;11.102;2023-02-01T01:25:42;4.57;;;3.67;;
42194;SDS011;27863;49.440;11.102;2023-02-01T01:28:42;4.23;;;3.93;;
42194;SDS011;27863;49.440;11.102;2023-02-01T01:31:43;4.83;;;4.37;;
42194;SDS011;27863;49.440;11.102;2023-02-01T01:34:43;4.73;;;4.37;;
42194;SDS011;27863;49.440;11.102;2023-02-01T01:37:44;5.57;;;4.97;;
42194;SDS011;27863;49.440;11.102;2023-02-01T01:40:45;5.37;;;4.87;;
42194;SDS011;27863;49.440;11.102;2023-02-01T01:43:51;4.87;;;4.43;;
42194;SDS011;27863;49.440;11.102;2023-02-01T01:46:56;6.50;;;4.17;;
42194;SDS011;27863;49.440;11.102;2023-02-01T01:49:56;5.37;;;4.37;;
42194;SDS011;27863;49.440;11.102;2023-02-01T01:52:58;5.07;;;4.67;;
42194;SDS011;27863;49.440;11.102;2023-02-01T01:56:01;4.73;;;4.37;;
42194;SDS011;27863;49.440;11.102;2023-02-01T01:59:02;5.30;;;4.80;;
42194;SDS011;27863;49.440;11.102;2023-02-01T02:02:03;4.03;;;3.70;;
42194;SDS011;27863;49.440;11.102;2023-02-01T02:05:04;4.27;;;3.97;;
42194;SDS011;27863;49.440;11.102;2023-02-01T02:08:05;4.37;;;3.97;;
42194;SDS011;27863;49.440;11.102;2023-02-01T02:11:06;3.87;;;3.57;;
42194;SDS011;27863;49.440;11.102;2023-02-01T02:14:07;3.67;;;3.37;;
42194;SDS011;27863;49.440;11.102;2023-02-01T02:27:22;3.73;;;3.43;;
42194;SDS011;27863;49.440;11.102;2023-02-01T02:34:17;3.73;;;3.43;;
42194;SDS011;27863;49.440;11.102;2023-02-01T02:44:13;3.73;;;3.43;;
42194;SDS011;27863;49.440;11.102;2023-02-01T02:50:42;3.97;;;3.67;;
42194;SDS011;27863;49.440;11.102;2023-02-01T02:54:07;4.83;;;4.40;;
42194;SDS011;27863;49.440;11.102;2023-02-01T03:00:53;4.90;;;4.27;;
42194;SDS011;27863;49.440;11.102;2023-02-01T03:04:14;5.40;;;4.47;;
42194;SDS011;27863;49.440;11.102;2023-02-01T03:14:09;4.70;;;4.37;;
42194;SDS011;27863;49.440;11.102;2023-02-01T03:17:12;4.50;;;4.10;;
42194;SDS011;27863;49.440;11.102;2023-02-01T03:20:15;5.33;;;4.83;;
42194;SDS011;27863;49.440;11.102;2023-02-01T03:23:20;7.87;;;5.30;;
42194;SDS011;27863;49.440;11.102;2023-02-01T03:26:23;4.70;;;4.03;;
42194;SDS011;27863;49.440;11.102;2023-02-01T03:29:30;5.40;;;4.90;;
42194;SDS011;27863;49.440;11.102;2023-02-01T03:32:38;5.53;;;5.03;;
42194;SDS011;27863;49.440;11.102;2023-02-01T03:42:34;5.63;;;5.23;;
42194;SDS011;27863;49.440;11.102;2023-02-01T03:45:38;5.37;;;4.77;;
42194;SDS011;27863;49.440;11.102;2023-02-01T03:48:43;6.03;;;5.33;;
42194;SDS011;27863;49.440;11.102;2023-02-01T03:51:45;5.80;;;5.33;;
42194;SDS011;27863;49.440;11.102;2023-02-01T03:54:46;7.23;;;6.57;;
42194;SDS011;27863;49.440;11.102;2023-02-01T04:01:07;6.70;;;5.23;;
42194;SDS011;27863;49.440;11.102;2023-02-01T04:04:11;5.23;;;4.83;;
42194;SDS011;27863;49.440;11.102;2023-02-01T04:07:20;5.50;;;5.10;;
42194;SDS011;27863;49.440;11.102;2023-02-01T04:10:20;5.43;;;4.93;;
42194;SDS011;27863;49.440;11.102;2023-02-01T04:13:21;6.43;;;5.57;;
42194;SDS011;27863;49.440;11.102;2023-02-01T04:16:21;5.73;;;5.23;;
42194;SDS011;27863;49.440;11.102;2023-02-01T04:19:21;5.87;;;4.83;;
42194;SDS011;27863;49.440;11.102;2023-02-01T04:22:22;5.43;;;5.03;;
42194;SDS011;27863;49.440;11.102;2023-02-01T04:25:23;5.47;;;4.97;;
42194;SDS011;27863;49.440;11.102;2023-02-01T04:28:23;5.63;;;5.23;;
42194;SDS011;27863;49.440;11.102;2023-02-01T04:31:24;5.47;;;4.97;;
42194;SDS011;27863;49.440;11.102;2023-02-01T04:34:27;5.37;;;4.87;;
42194;SDS011;27863;49.440;11.102;2023-02-01T04:37:27;5.97;;;5.40;;
42194;SDS011;27863;49.440;11.102;2023-02-01T04:40:28;5.53;;;5.13;;
42194;SDS011;27863;49.440;11.102;2023-02-01T04:43:29;4.97;;;4.57;;
42194;SDS011;27863;49.440;11.102;2023-02-01T04:46:29;5.60;;;5.10;;
42194;SDS011;27863;49.440;11.102;2023-02-01T04:49:30;5.07;;;4.67;;
42194;SDS011;27863;49.440;11.102;2023-02-01T04:52:31;5.80;;;5.30;;
42194;SDS011;27863;49.440;11.102;2023-02-01T04:55:32;5.07;;;4.43;;
42194;SDS011;27863;49.440;11.102;2023-02-01T04:58:33;4.97;;;4.53;;
42194;SDS011;27863;49.440;11.102;2023-02-01T05:01:33;5.47;;;5.00;;
42194;SDS011;27863;49.440;11.102;2023-02-01T05:04:34;4.97;;;4.57;;
42194;SDS011;27863;49.440;11.102;2023-02-01T05:07:34;5.80;;;5.30;;
42194;SDS011;27863;49.440;11.102;2023-02-01T05:10:35;5.03;;;4.53;;
42194;SDS011;27863;49.440;11.102;2023-02-01T05:13:35;4.40;;;4.00;;
42194;SDS011;27863;49.440;11.102;2023-02-01T05:16:48;5.20;;;4.67;;
42194;SDS011;27863;49.440;11.102;2023-02-01T05:19:48;4.87;;;4.47;;
42194;SDS011;27863;49.440;11.102;2023-02-01T05:22:49;5.77;;;5.17;;
42194;SDS011;27863;49.440;11.102;2023-02-01T05:25:50;5.50;;;4.97;;
42194;SDS011;27863;49.440;11.102;2023-02-01T05:28:50;5.47;;;5.00;;
42194;SDS011;27863;49.440;11.102;2023-02-01T05:31:51;5.70;;;5.20;;
42194;SDS011;27863;49.440;11.102;2023-02-01T05:34:52;6.17;;;5.57;;
42194;SDS011;27863;49.440;11.102;2023-02-01T05:37:52;6.47;;;5.87;;
42194;SDS011;27863;49.440;11.102;2023-02-01T05:40:53;6.37;;;5.77;;
42194;SDS011;27863;49.440;11.102;2023-02-01T05:43:53;6.07;;;5.57;;
42194;SDS011;27863;49.440;11.102;2023-02-01T05:46:54;6.43;;;5.93;;
42194;SDS011;27863;49.440;11.102;2023-02-01T05:49:54;7.03;;;6.33;;
42194;SDS011;27863;49.440;11.102;2023-02-01T05:52:55;7.07;;;6.47;;
42194;SDS011;27863;49.440;11.102;2023-02-01T05:55:55;6.57;;;5.93;;
42194;SDS011;27863;49.440;11.102;2023-02-01T05:58:55;6.97;;;6.27;;
42194;SDS011;27863;49.440;11.102;2023-02-01T06:01:56;6.90;;;6.23;;
42194;SDS011;27863;49.440;11.102;2023-02-01T06:04:56;6.50;;;5.90;;
42194;SDS011;27863;49.440;11.102;2023-02-01T06:07:57;5.60;;;5.20;;
42194;SDS011;27863;49.440;11.102;2023-02-01T06:11:02;5.03;;;4.20;;
42194;SDS011;27863;49.440;11.102;2023-02-01T06:14:04;4.53;;;3.50;;
42194;SDS011;27863;49.440;11.102;2023-02-01T06:17:04;4.20;;;3.83;;
42194;SDS011;27863;49.440;11.102;2023-02-01T06:20:06;3.90;;;3.60;;
42194;SDS011;27863;49.440;11.102;2023-02-01T06:23:07;3.93;;;3.57;;
42194;SDS011;27863;49.440;11.102;2023-02-01T06:26:09;12.13;;;6.17;;
42194;SDS011;27863;49.440;11.102;2023-02-01T06:29:10;3.70;;;3.40;;
42194;SDS011;27863;49.440;11.102;2023-02-01T06:32:11;3.70;;;2.97;;
42194;SDS011;27863;49.440;11.102;2023-02-01T06:35:12;4.50;;;4.10;;
42194;SDS011;27863;49.440;11.102;2023-02-01T06:38:16;3.43;;;3.23;;
42194;SDS011;27863;49.440;11.102;2023-02-01T06:41:17;4.07;;;3.77;;
42194;SDS011;27863;49.440;11.102;2023-02-01T06:44:17;4.17;;;3.47;;
42194;SDS011;27863;49.440;11.102;2023-02-01T06:47:19;3.63;;;3.33;;
42194;SDS011;27863;49.440;11.102;2023-02-01T06:50:20;3.23;;;2.93;;
42194;SDS011;27863;49.440;11.102;2023-02-01T06:53:20;2.73;;;2.53;;
42194;SDS011;27863;49.440;11.102;2023-02-01T06:56:21;2.63;;;2.43;;
42194;SDS011;27863;49.440;11.102;2023-02-01T06:59:22;3.60;;;3.30;;
42194;SDS011;27863;49.440;11.102;2023-02-01T07:02:23;2.90;;;2.70;;
42194;SDS011;27863;49.440;11.102;2023-02-01T07:05:23;3.03;;;2.83;;
42194;SDS011;27863;49.440;11.102;2023-02-01T07:08:24;2.47;;;2.27;;
42194;SDS011;27863;49.440;11.102;2023-02-01T07:11:26;2.47;;;2.10;;
42194;SDS011;27863;49.440;11.102;2023-02-01T07:14:28;2.00;;;1.83;;
42194;SDS011;27863;49.440;11.102;2023-02-01T07:17:28;2.40;;;2.10;;
42194;SDS011;27863;49.440;11.102;2023-02-01T07:20:29;3.20;;;2.70;;
42194;SDS011;27863;49.440;11.102;2023-02-01T07:23:31;2.73;;;2.20;;
42194;SDS011;27863;49.440;11.102;2023-02-01T07:26:32;2.27;;;2.17;;
42194;SDS011;27863;49.440;11.102;2023-02-01T07:29:33;3.93;;;2.60;;
42194;SDS011;27863;49.440;11.102;2023-02-01T07:32:33;2.10;;;1.90;;
42194;SDS011;27863;49.440;11.102;2023-02-01T07:35:35;3.43;;;3.07;;
42194;SDS011;27863;49.440;11.102;2023-02-01T07:38:36;3.00;;;2.80;;
42194;SDS011;27863;49.440;11.102;2023-02-01T07:41:36;3.30;;;2.67;;
42194;SDS011;27863;49.440;11.102;2023-02-01T07:44:41;3.23;;;2.93;;
42194;SDS011;27863;49.440;11.102;2023-02-01T07:47:41;3.97;;;3.17;;
42194;SDS011;27863;49.440;11.102;2023-02-01T07:50:43;3.33;;;3.03;;
42194;SDS011;27863;49.440;11.102;2023-02-01T07:53:44;3.57;;;2.50;;
42194;SDS011;27863;49.440;11.102;2023-02-01T07:56:45;3.33;;;2.53;;
42194;SDS011;27863;49.440;11.102;2023-02-01T07:59:45;2.53;;;2.20;;
42194;SDS011;27863;49.440;11.102;2023-02-01T08:03:12;4.60;;;2.80;;
42194;SDS011;27863;49.440;11.102;2023-02-01T08:06:13;3.13;;;2.67;;
42194;SDS011;27863;49.440;11.102;2023-02-01T08:09:14;3.40;;;2.20;;
42194;SDS011;27863;49.440;11.102;2023-02-01T08:12:15;3.43;;;2.30;;
42194;SDS011;27863;49.440;11.102;2023-02-01T08:15:16;4.63;;;2.63;;
42194;SDS011;27863;49.440;11.102;2023-02-01T08:18:17;5.20;;;2.70;;
42194;SDS011;27863;49.440;11.102;2023-02-01T08:21:19;2.93;;;2.60;;
42194;SDS011;27863;49.440;11.102;2023-02-01T08:24:22;2.20;;;2.00;;
42194;SDS011;27863;49.440;11.102;2023-02-01T08:27:22;2.47;;;2.03;;
42194;SDS011;27863;49.440;11.102;2023-02-01T08:30:24;4.77;;;2.20;;
42194;SDS011;27863;49.440;11.102;2023-02-01T08:33:24;1.20;;;1.10;;
42194;SDS011;27863;49.440;11.102;2023-02-01T08:36:25;2.50;;;1.50;;
42194;SDS011;27863;49.440;11.102;2023-02-01T08:39:27;1.77;;;1.60;;
42194;SDS011;27863;49.440;11.102;2023-02-01T08:42:29;2.43;;;1.50;;
42194;SDS011;27863;49.440;11.102;2023-02-01T08:45:49;2.40;;;1.40;;
42194;SDS011;27863;49.440;11.102;2023-02-01T08:48:50;3.27;;;1.40;;
42194;SDS011;27863;49.440;11.102;2023-02-01T08:51:51;2.77;;;2.20;;
42194;SDS011;27863;49.440;11.102;2023-02-01T08:54:51;3.47;;;2.17;;
42194;SDS011;27863;49.440;11.102;2023-02-01T08:57:51;4.37;;;1.90;;
42194;SDS011;27863;49.440;11.102;2023-02-01T09:00:52;2.73;;;2.10;;
42194;SDS011;27863;49.440;11.102;2023-02-01T09:03:53;2.83;;;2.03;;
42194;SDS011;27863;49.440;11.102;2023-02-01T09:06:53;3.97;;;3.33;;
42194;SDS011;27863;49.440;11.102;2023-02-01T09:09:55;8.37;;;5.27;;
42194;SDS011;27863;49.440;11.102;2023-02-01T09:12:56;5.83;;;3.83;;
42194;SDS011;27863;49.440;11.102;2023-02-01T09:15:57;4.77;;;4.07;;
42194;SDS011;27863;49.440;11.102;2023-02-01T09:18:59;5.87;;;4.20;;
42194;SDS011;27863;49.440;11.102;2023-02-01T09:22:00;2.57;;;2.27;;
42194;SDS011;27863;49.440;11.102;2023-02-01T09:25:01;2.90;;;2.00;;
42194;SDS011;27863;49.440;11.102;2023-02-01T09:28:01;4.07;;;2.27;;
42194;SDS011;27863;49.440;11.102;2023-02-01T09:31:04;2.33;;;1.70;;
42194;SDS011;27863;49.440;11.102;2023-02-01T09:34:04;3.43;;;2.07;;
42194;SDS011;27863;49.440;11.102;2023-02-01T09:37:05;2.43;;;1.47;;
42194;SDS011;27863;49.440;11.102;2023-02-01T09:40:05;1.87;;;1.40;;
42194;SDS011;27863;49.440;11.102;2023-02-01T09:43:11;3.73;;;1.30;;
42194;SDS011;27863;49.440;11.102;2023-02-01T09:46:39;4.27;;;1.23;;
42194;SDS011;27863;49.440;11.102;2023-02-01T09:49:44;4.87;;;1.43;;
42194;SDS011;27863;49.440;11.102;2023-02-01T09:52:52;2.63;;;1.70;;
42194;SDS011;27863;49.440;11.102;2023-02-01T09:56:05;10.23;;;2.20;;
42194;SDS011;27863;49.440;11.102;2023-02-01T09:59:15;8.27;;;2.10;;
42194;SDS011;27863;49.440;11.102;2023-02-01T10:02:37;3.80;;;1.30;;
42194;SDS011;27863;49.440;11.102;2023-02-01T10:22:44;4.97;;;2.77;;
42194;SDS011;27863;49.440;11.102;2023-02-01T10:28:58;6.20;;;3.67;;
42194;SDS011;27863;49.440;11.102;2023-02-01T10:32:00;4.47;;;3.30;;
42194;SDS011;27863;49.440;11.102;2023-02-01T10:35:05;5.97;;;3.43;;
42194;SDS011;27863;49.440;11.102;2023-02-01T10:38:16;5.70;;;3.80;;
42194;SDS011;27863;49.440;11.102;2023-02-01T10:41:35;5.03;;;3.70;;
42194;SDS011;27863;49.440;11.102;2023-02-01T10:44:36;4.30;;;2.97;;
42194;SDS011;27863;49.440;11.102;2023-02-01T10:47:43;3.50;;;2.60;;
42194;SDS011;27863;49.440;11.102;2023-02-01T10:50:51;4.07;;;2.87;;
42194;SDS011;27863;49.440;11.102;2023-02-01T10:53:56;6.70;;;3.00;;
42194;SDS011;27863;49.440;11.102;2023-02-01T10:56:58;8.73;;;3.27;;
42194;SDS011;27863;49.440;11.102;2023-02-01T11:00:02;5.50;;;3.47;;
42194;SDS011;27863;49.440;11.102;2023-02-01T11:06:51;6.17;;;3.90;;
42194;SDS011;27863;49.440;11.102;2023-02-01T11:09:54;5.00;;;3.10;;
42194;SDS011;27863;49.440;11.102;2023-02-01T11:12:56;8.20;;;3.23;;
42194;SDS011;27863;49.440;11.102;2023-02-01T11:15:57;6.50;;;3.83;;
42194;SDS011;27863;49.440;11.102;2023-02-01T11:18:58;3.67;;;3.10;;
42194;SDS011;27863;49.440;11.102;2023-02-01T11:21:59;4.00;;;2.87;;
42194;SDS011;27863;49.440;11.102;2023-02-01T11:25:01;3.07;;;2.57;;
42194;SDS011;27863;49.440;11.102;2023-02-01T11:28:02;3.63;;;2.23;;
42194;SDS011;27863;49.440;11.102;2023-02-01T11:31:03;3.67;;;2.00;;
42194;SDS011;27863;49.440;11.102;2023-02-01T11:37:13;8.13;;;2.30;;
42194;SDS011;27863;49.440;11.102;2023-02-01T11:40:36;7.37;;;2.70;;
42194;SDS011;27863;49.440;11.102;2023-02-01T11:43:38;4.07;;;2.50;;
42194;SDS011;27863;49.440;11.102;2023-02-01T11:47:17;6.60;;;2.40;;
42194;SDS011;27863;49.440;11.102;2023-02-01T11:50:41;3.97;;;1.97;;
42194;SDS011;27863;49.440;11.102;2023-02-01T12:06:54;4.07;;;2.13;;
42194;SDS011;27863;49.440;11.102;2023-02-01T12:10:21;6.00;;;2.50;;
42194;SDS011;27863;49.440;11.102;2023-02-01T12:14:02;5.40;;;2.30;;
42194;SDS011;27863;49.440;11.102;2023-02-01T12:27:46;5.00;;;2.40;;
42194;SDS011;27863;49.440;11.102;2023-02-01T12:30:59;2.93;;;2.57;;
42194;SDS011;27863;49.440;11.102;2023-02-01T12:34:36;2.50;;;1.80;;
42194;SDS011;27863;49.440;11.102;2023-02-01T12:45:06;6.83;;;2.33;;
42194;SDS011;27863;49.440;11.102;2023-02-01T12:47:52;9.10;;;2.93;;
42194;SDS011;27863;49.440;11.102;2023-02-01T12:50:56;3.60;;;2.60;;
42194;SDS011;27863;49.440;11.102;2023-02-01T12:57:06;4.00;;;2.03;;
42194;SDS011;27863;49.440;11.102;2023-02-01T13:03:29;3.63;;;2.57;;
42194;SDS011;27863;49.440;11.102;2023-02-01T13:06:36;4.47;;;2.73;;
42194;SDS011;27863;49.440;11.102;2023-02-01T13:12:53;4.67;;;2.33;;
42194;SDS011;27863;49.440;11.102;2023-02-01T13:16:05;3.70;;;2.43;;
42194;SDS011;27863;49.440;11.102;2023-02-01T13:19:35;4.90;;;2.70;;
42194;SDS011;27863;49.440;11.102;2023-02-01T13:22:43;8.57;;;2.93;;
42194;SDS011;27863;49.440;11.102;2023-02-01T13:25:53;4.87;;;2.77;;
42194;SDS011;27863;49.440;11.102;2023-02-01T13:28:59;7.03;;;3.40;;
42194;SDS011;27863;49.440;11.102;2023-02-01T13:42:19;4.20;;;2.67;;
42194;SDS011;27863;49.440;11.102;2023-02-01T13:45:31;6.77;;;2.27;;
42194;SDS011;27863;49.440;11.102;2023-02-01T13:51:56;6.27;;;2.13;;
42194;SDS011;27863;49.440;11.102;2023-02-01T13:55:01;5.67;;;2.73;;
42194;SDS011;27863;49.440;11.102;2023-02-01T14:11:05;4.10;;;2.20;;
42194;SDS011;27863;49.440;11.102;2023-02-01T14:20:41;6.70;;;2.37;;
42194;SDS011;27863;49.440;11.102;2023-02-01T14:23:47;5.67;;;2.63;;
42194;SDS011;27863;49.440;11.102;2023-02-01T14:26:56;4.30;;;2.60;;
42194;SDS011;27863;49.440;11.102;2023-02-01T14:30:00;7.97;;;2.80;;
42194;SDS011;27863;49.440;11.102;2023-02-01T14:33:11;8.07;;;2.37;;
42194;SDS011;27863;49.440;11.102;2023-02-01T14:36:17;3.63;;;2.57;;
42194;SDS011;27863;49.440;11.102;2023-02-01T14:39:19;5.23;;;2.20;;
42194;SDS011;27863;49.440;11.102;2023-02-01T14:42:26;8.30;;;2.37;;
42194;SDS011;27863;49.440;11.102;2023-02-01T14:45:46;5.97;;;2.40;;
42194;SDS011;27863;49.440;11.102;2023-02-01T14:48:50;2.53;;;2.10;;
42194;SDS011;27863;49.440;11.102;2023-02-01T14:51:51;6.07;;;2.03;;
42194;SDS011;27863;49.440;11.102;2023-02-01T14:54:54;7.87;;;2.60;;
42194;SDS011;27863;49.440;11.102;2023-02-01T14:57:57;4.93;;;2.40;;
42194;SDS011;27863;49.440;11.102;2023-02-01T15:01:04;7.57;;;2.70;;
42194;SDS011;27863;49.440;11.102;2023-02-01T15:04:24;6.13;;;3.27;;
42194;SDS011;27863;49.440;11.102;2023-02-01T15:07:27;7.13;;;2.43;;
42194;SDS011;27863;49.440;11.102;2023-02-01T15:10:29;8.83;;;2.80;;
42194;SDS011;27863;49.440;11.102;2023-02-01T15:13:31;3.13;;;2.23;;
42194;SDS011;27863;49.440;11.102;2023-02-01T15:16:34;4.93;;;3.17;;
42194;SDS011;27863;49.440;11.102;2023-02-01T15:19:52;13.20;;;3.17;;
42194;SDS011;27863;49.440;11.102;2023-02-01T15:22:58;4.30;;;2.57;;
42194;SDS011;27863;49.440;11.102;2023-02-01T15:26:04;5.67;;;2.40;;
42194;SDS011;27863;49.440;11.102;2023-02-01T15:29:05;4.80;;;3.03;;
42194;SDS011;27863;49.440;11.102;2023-02-01T15:32:05;4.93;;;2.87;;
42194;SDS011;27863;49.440;11.102;2023-02-01T15:41:41;4.00;;;2.83;;
42194;SDS011;27863;49.440;11.102;2023-02-01T15:44:45;7.90;;;3.07;;
42194;SDS011;27863;49.440;11.102;2023-02-01T15:47:50;6.70;;;2.30;;
42194;SDS011;27863;49.440;11.102;2023-02-01T15:50:52;7.83;;;3.10;;
42194;SDS011;27863;49.440;11.102;2023-02-01T15:57:02;6.77;;;1.93;;
42194;SDS011;27863;49.440;11.102;2023-02-01T16:00:04;2.47;;;1.67;;
42194;SDS011;27863;49.440;11.102;2023-02-01T16:06:46;4.50;;;2.00;;
42194;SDS011;27863;49.440;11.102;2023-02-01T16:09:58;5.53;;;2.17;;
42194;SDS011;27863;49.440;11.102;2023-02-01T16:13:06;3.80;;;1.70;;
42194;SDS011;27863;49.440;11.102;2023-02-01T16:16:14;5.27;;;2.03;;
42194;SDS011;27863;49.440;11.102;2023-02-01T16:19:15;4.77;;;1.97;;
42194;SDS011;27863;49.440;11.102;2023-02-01T16:22:16;8.87;;;2.00;;
42194;SDS011;27863;49.440;11.102;2023-02-01T16:25:16;12.03;;;2.17;;
42194;SDS011;27863;49.440;11.102;2023-02-01T16:28:19;5.80;;;2.00;;
42194;SDS011;27863;49.440;11.102;2023-02-01T16:31:20;15.73;;;4.77;;
42194;SDS011;27863;49.440;11.102;2023-02-01T16:34:24;7.43;;;2.80;;
42194;SDS011;27863;49.440;11.102;2023-02-01T16:37:25;3.47;;;1.77;;
42194;SDS011;27863;49.440;11.102;2023-02-01T16:40:28;5.47;;;2.33;;
42194;SDS011;27863;49.440;11.102;2023-02-01T16:43:28;5.73;;;1.70;;
42194;SDS011;27863;49.440;11.102;2023-02-01T16:46:29;8.43;;;3.30;;
42194;SDS011;27863;49.440;11.102;2023-02-01T16:49:48;3.80;;;2.27;;
42194;SDS011;27863;49.440;11.102;2023-02-01T16:52:50;4.43;;;2.07;;
42194;SDS011;27863;49.440;11.102;2023-02-01T16:55:51;4.40;;;1.93;;
42194;SDS011;27863;49.440;11.102;2023-02-01T16:58:52;8.27;;;1.63;;
42194;SDS011;27863;49.440;11.102;2023-02-01T17:01:54;6.40;;;2.07;;
42194;SDS011;27863;49.440;11.102;2023-02-01T17:04:54;6.67;;;1.83;;
42194;SDS011;27863;49.440;11.102;2023-02-01T17:07:56;5.30;;;2.13;;
42194;SDS011;27863;49.440;11.102;2023-02-01T17:10:59;9.77;;;2.57;;
42194;SDS011;27863;49.440;11.102;2023-02-01T17:14:08;6.40;;;2.40;;
42194;SDS011;27863;49.440;11.102;2023-02-01T17:17:14;5.83;;;2.03;;
42194;SDS011;27863;49.440;11.102;2023-02-01T17:20:17;4.93;;;1.93;;
42194;SDS011;27863;49.440;11.102;2023-02-01T17:23:21;5.23;;;2.13;;
42194;SDS011;27863;49.440;11.102;2023-02-01T17:26:21;4.83;;;1.80;;
42194;SDS011;27863;49.440;11.102;2023-02-01T17:29:22;10.43;;;2.17;;
42194;SDS011;27863;49.440;11.102;2023-02-01T17:32:23;2.80;;;1.60;;
42194;SDS011;27863;49.440;11.102;2023-02-01T17:35:26;7.13;;;1.63;;
42194;SDS011;27863;49.440;11.102;2023-02-01T17:38:28;3.43;;;1.67;;
42194;SDS011;27863;49.440;11.102;2023-02-01T17:41:30;5.00;;;2.30;;
42194;SDS011;27863;49.440;11.102;2023-02-01T17:44:32;4.17;;;2.17;;
42194;SDS011;27863;49.440;11.102;2023-02-01T17:47:33;4.27;;;2.33;;
42194;SDS011;27863;49.440;11.102;2023-02-01T17:50:34;8.50;;;2.60;;
42194;SDS011;27863;49.440;11.102;2023-02-01T17:53:36;10.13;;;2.77;;
42194;SDS011;27863;49.440;11.102;2023-02-01T17:56:37;2.33;;;1.57;;
42194;SDS011;27863;49.440;11.102;2023-02-01T17:59:37;4.03;;;2.10;;
42194;SDS011;27863;49.440;11.102;2023-02-01T18:02:38;2.80;;;2.30;;
42194;SDS011;27863;49.440;11.102;2023-02-01T18:05:39;6.00;;;2.23;;
42194;SDS011;27863;49.440;11.102;2023-02-01T18:08:42;5.93;;;2.20;;
42194;SDS011;27863;49.440;11.102;2023-02-01T18:11:43;4.03;;;2.20;;
42194;SDS011;27863;49.440;11.102;2023-02-01T18:14:44;4.70;;;2.20;;
42194;SDS011;27863;49.440;11.102;2023-02-01T18:17:44;3.90;;;1.93;;
42194;SDS011;27863;49.440;11.102;2023-02-01T18:20:46;3.83;;;1.80;;
42194;SDS011;27863;49.440;11.102;2023-02-01T18:23:47;3.47;;;2.40;;
42194;SDS011;27863;49.440;11.102;2023-02-01T18:26:48;5.90;;;1.83;;
42194;SDS011;27863;49.440;11.102;2023-02-01T18:29:49;6.27;;;2.50;;
42194;SDS011;27863;49.440;11.102;2023-02-01T18:32:49;3.83;;;2.20;;
42194;SDS011;27863;49.440;11.102;2023-02-01T18:35:51;6.70;;;2.13;;
42194;SDS011;27863;49.440;11.102;2023-02-01T18:38:52;6.07;;;2.57;;
42194;SDS011;27863;49.440;11.102;2023-02-01T18:41:57;6.67;;;2.93;;
42194;SDS011;27863;49.440;11.102;2023-02-01T18:44:57;5.90;;;3.40;;
42194;SDS011;27863;49.440;11.102;2023-02-01T18:48:01;6.37;;;2.30;;
42194;SDS011;27863;49.440;11.102;2023-02-01T18:51:02;5.07;;;2.57;;
42194;SDS011;27863;49.440;11.102;2023-02-01T18:54:04;5.70;;;2.30;;
42194;SDS011;27863;49.440;11.102;2023-02-01T18:57:05;10.87;;;2.43;;
42194;SDS011;27863;49.440;11.102;2023-02-01T19:00:06;5.53;;;2.30;;
42194;SDS011;27863;49.440;11.102;2023-02-01T19:03:11;3.30;;;2.13;;
42194;SDS011;27863;49.440;11.102;2023-02-01T19:06:15;3.07;;;2.00;;
42194;SDS011;27863;49.440;11.102;2023-02-01T19:09:15;6.53;;;2.23;;
42194;SDS011;27863;49.440;11.102;2023-02-01T19:12:17;2.37;;;1.70;;
42194;SDS011;27863;49.440;11.102;2023-02-01T19:15:20;11.07;;;2.80;;
42194;SDS011;27863;49.440;11.102;2023-02-01T19:18:22;12.77;;;2.63;;
42194;SDS011;27863;49.440;11.102;2023-02-01T19:21:23;5.77;;;2.67;;
42194;SDS011;27863;49.440;11.102;2023-02-01T19:24:25;7.80;;;2.70;;
42194;SDS011;27863;49.440;11.102;2023-02-01T19:27:27;3.63;;;2.40;;
42194;SDS011;27863;49.440;11.102;2023-02-01T19:30:27;3.87;;;2.70;;
42194;SDS011;27863;49.440;11.102;2023-02-01T19:33:28;5.90;;;2.10;;
42194;SDS011;27863;49.440;11.102;2023-02-01T19:36:30;4.97;;;4.17;;
42194;SDS011;27863;49.440;11.102;2023-02-01T19:39:31;5.93;;;2.00;;
42194;SDS011;27863;49.440;11.102;2023-02-01T19:42:32;4.37;;;2.90;;
42194;SDS011;27863;49.440;11.102;2023-02-01T19:45:32;4.47;;;2.53;;
42194;SDS011;27863;49.440;11.102;2023-02-01T19:48:35;8.50;;;3.37;;
42194;SDS011;27863;49.440;11.102;2023-02-01T19:51:35;11.43;;;2.80;;
42194;SDS011;27863;49.440;11.102;2023-02-01T19:54:39;6.83;;;2.53;;
42194;SDS011;27863;49.440;11.102;2023-02-01T19:57:40;4.40;;;2.60;;
42194;SDS011;27863;49.440;11.102;2023-02-01T20:00:42;12.40;;;3.90;;
42194;SDS011;27863;49.440;11.102;2023-02-01T20:03:43;5.20;;;3.47;;
42194;SDS011;27863;49.440;11.102;2023-02-01T20:06:44;3.30;;;2.27;;
42194;SDS011;27863;49.440;11.102;2023-02-01T20:09:48;5.80;;;2.40;;
42194;SDS011;27863;49.440;11.102;2023-02-01T20:12:50;3.37;;;2.10;;
42194;SDS011;27863;49.440;11.102;2023-02-01T20:15:57;5.00;;;2.60;;
42194;SDS011;27863;49.440;11.102;2023-02-01T20:18:59;5.43;;;2.50;;
42194;SDS011;27863;49.440;11.102;2023-02-01T20:21:59;7.80;;;2.70;;
42194;SDS011;27863;49.440;11.102;2023-02-01T20:25:00;4.30;;;2.50;;
42194;SDS011;27863;49.440;11.102;2023-02-01T20:28:02;5.83;;;2.93;;
42194;SDS011;27863;49.440;11.102;2023-02-01T20:31:03;5.60;;;2.40;;
42194;SDS011;27863;49.440;11.102;2023-02-01T20:34:04;5.37;;;2.63;;
42194;SDS011;27863;49.440;11.102;2023-02-01T20:37:04;8.53;;;2.07;;
42194;SDS011;27863;49.440;11.102;2023-02-01T20:40:06;8.53;;;3.10;;
42194;SDS011;27863;49.440;11.102;2023-02-01T20:43:09;4.40;;;2.13;;
42194;SDS011;27863;49.440;11.102;2023-02-01T20:46:10;5.17;;;2.47;;